createdAt,value
2019-04-25T00:00:51.339Z,9.90
2019-04-25T00:03:22.208Z,9.90
2019-04-25T00:05:49.897Z,9.80
2019-04-25T00:08:17.122Z,9.80
2019-04-25T00:10:45.440Z,9.80
2019-04-25T00:13:13.162Z,9.80
2019-04-25T00:15:41.963Z,9.70
2019-04-25T00:18:09.371Z,9.80
2019-04-25T00:20:39.078Z,9.70
2019-04-25T00:23:12.240Z,9.70
2019-04-25T00:25:57.468Z,9.60
2019-04-25T00:28:24.675Z,9.60
2019-04-25T00:30:53.073Z,9.50
2019-04-25T00:33:21.547Z,9.50
2019-04-25T00:35:49.628Z,9.50
2019-04-25T00:38:17.437Z,9.50
2019-04-25T00:40:45.883Z,9.50
2019-04-25T00:43:13.552Z,9.50
2019-04-25T00:45:42.405Z,9.50
2019-04-25T00:48:10.330Z,9.50
2019-04-25T00:50:37.567Z,9.50
2019-04-25T00:53:04.747Z,9.50
2019-04-25T00:55:32.299Z,9.50
2019-04-25T00:58:06.809Z,9.50
2019-04-25T01:00:51.122Z,9.50
2019-04-25T01:03:23.442Z,9.50
2019-04-25T01:05:53.139Z,9.50
2019-04-25T01:08:21.907Z,9.50
2019-04-25T01:10:52.006Z,9.50
2019-04-25T01:13:19.479Z,9.50
2019-04-25T01:15:46.726Z,9.50
2019-04-25T01:18:14.443Z,9.50
2019-04-25T01:20:43.427Z,9.50
2019-04-25T01:23:11.182Z,9.50
2019-04-25T01:25:42.396Z,9.50
2019-04-25T01:28:07.950Z,9.50
2019-04-25T01:30:35.656Z,9.50
2019-04-25T01:33:03.566Z,9.50
2019-04-25T01:35:41.115Z,9.50
2019-04-25T01:38:26.178Z,9.60
2019-04-25T01:41:15.587Z,9.60
2019-04-25T01:44:14.733Z,9.70
2019-04-25T01:46:44.225Z,9.70
2019-04-25T01:49:11.539Z,9.70
2019-04-25T01:51:39.060Z,9.70
2019-04-25T01:54:07.056Z,9.70
2019-04-25T01:56:34.575Z,9.70
2019-04-25T01:59:03.773Z,9.60
2019-04-25T02:01:32.159Z,9.60
2019-04-25T02:03:59.338Z,9.60
2019-04-25T02:06:27.315Z,9.60
2019-04-25T02:08:55.984Z,9.60
2019-04-25T02:11:36.464Z,9.60
2019-04-25T02:14:05.207Z,9.60
2019-04-25T02:16:33.553Z,9.50
2019-04-25T02:19:03.915Z,9.40
2019-04-25T02:21:31.634Z,9.50
2019-04-25T02:24:00.175Z,9.40
2019-04-25T02:26:28.210Z,9.40
2019-04-25T02:28:56.463Z,9.40
2019-04-25T02:31:25.167Z,9.40
2019-04-25T02:33:53.625Z,9.40
2019-04-25T02:36:24.613Z,9.40
2019-04-25T02:38:51.682Z,9.40
2019-04-25T02:41:19.725Z,9.40
2019-04-25T02:43:47.287Z,9.30
2019-04-25T02:46:48.978Z,9.30
2019-04-25T02:49:39.737Z,9.30
2019-04-25T02:52:15.665Z,9.30
2019-04-25T02:54:41.523Z,9.30
2019-04-25T02:57:09.043Z,9.30
2019-04-25T02:59:37.075Z,9.30
2019-04-25T03:02:08.558Z,9.20
2019-04-25T03:04:35.213Z,9.20
2019-04-25T03:07:07.148Z,9.20
2019-04-25T03:09:31.967Z,9.20
2019-04-25T03:11:59.953Z,9.20
2019-04-25T03:14:27.431Z,9.20
2019-04-25T03:16:54.891Z,9.20
2019-04-25T03:19:54.504Z,9.20
2019-04-25T03:22:26.679Z,9.10
2019-04-25T03:24:54.953Z,9.10
2019-04-25T03:27:22.703Z,9.10
2019-04-25T03:29:49.936Z,9.20
2019-04-25T03:32:19.926Z,9.10
2019-04-25T03:34:47.146Z,9.10
2019-04-25T03:37:14.385Z,9.10
2019-04-25T03:39:43.660Z,9.10
2019-04-25T03:42:12.035Z,9.10
2019-04-25T03:44:39.763Z,9.10
2019-04-25T03:47:07.749Z,9.10
2019-04-25T03:49:35.926Z,9.10
2019-04-25T03:52:05.232Z,9.10
2019-04-25T03:54:33.435Z,9.10
2019-04-25T03:57:02.360Z,9.10
2019-04-25T03:59:30.451Z,9.00
2019-04-25T04:01:58.039Z,9.00
2019-04-25T04:04:25.902Z,9.00
2019-04-25T04:06:53.738Z,9.00
2019-04-25T04:09:23.894Z,9.00
2019-04-25T04:11:53.429Z,9.00
2019-04-25T04:14:23.806Z,9.00
2019-04-25T04:17:16.020Z,8.90
2019-04-25T04:19:51.078Z,8.90
2019-04-25T04:22:34.204Z,9.00
2019-04-25T04:25:03.781Z,9.00
2019-04-25T04:27:31.324Z,9.00
2019-04-25T04:29:58.884Z,9.00
2019-04-25T04:32:26.419Z,9.20
2019-04-25T04:34:53.874Z,9.20
2019-04-25T04:37:21.362Z,9.20
2019-04-25T04:39:48.902Z,9.20
2019-04-25T04:42:16.378Z,9.30
2019-04-25T04:44:43.870Z,9.30
2019-04-25T04:47:12.110Z,9.40
2019-04-25T04:49:40.996Z,9.40
2019-04-25T04:52:09.339Z,9.40
2019-04-25T04:54:37.262Z,9.50
2019-04-25T04:57:16.649Z,9.50
2019-04-25T04:59:34.244Z,9.60
2019-04-25T05:02:23.547Z,9.60
2019-04-25T05:05:14.798Z,9.60
2019-04-25T05:07:50.044Z,9.70
2019-04-25T05:10:18.769Z,9.70
2019-04-25T05:12:46.353Z,9.80
2019-04-25T05:15:16.663Z,9.80
2019-04-25T05:17:44.225Z,9.90
2019-04-25T05:20:12.854Z,9.90
2019-04-25T05:22:40.659Z,10.00
2019-04-25T05:25:08.315Z,10.00
2019-04-25T05:27:46.315Z,10.00
2019-04-25T05:30:06.583Z,10.00
2019-04-25T05:32:34.271Z,10.10
2019-04-25T05:35:03.248Z,10.10
2019-04-25T05:37:30.671Z,10.10
2019-04-25T05:39:57.891Z,10.10
2019-04-25T05:42:44.705Z,10.20
2019-04-25T05:45:13.061Z,10.20
2019-04-25T05:47:41.837Z,10.30
2019-04-25T05:50:10.555Z,10.40
2019-04-25T05:52:37.800Z,10.50
2019-04-25T05:55:05.427Z,10.70
2019-04-25T05:57:44.873Z,10.80
2019-04-25T06:00:03.588Z,10.90
2019-04-25T06:02:31.575Z,11.00
2019-04-25T06:04:59.105Z,11.00
2019-04-25T06:07:26.762Z,11.10
2019-04-25T06:10:14.408Z,11.10
2019-04-25T06:13:01.685Z,11.20
2019-04-25T06:15:29.971Z,11.30
2019-04-25T06:18:14.096Z,11.40
2019-04-25T06:20:41.475Z,11.40
2019-04-25T06:23:40.495Z,11.50
2019-04-25T06:26:19.229Z,11.60
2019-04-25T06:28:49.022Z,11.80
2019-04-25T06:31:10.150Z,11.90
2019-04-25T06:33:36.312Z,12.00
2019-04-25T06:36:04.150Z,12.00
2019-04-25T06:38:32.025Z,12.00
2019-04-25T06:41:00.727Z,12.00
2019-04-25T06:43:28.088Z,12.00
2019-04-25T06:46:30.127Z,12.00
2019-04-25T06:49:04.238Z,12.10
2019-04-25T06:51:51.353Z,12.10
2019-04-25T06:54:19.123Z,12.20
2019-04-25T06:56:46.471Z,12.20
2019-04-25T06:59:14.019Z,12.20
2019-04-25T07:01:41.227Z,12.30
2019-04-25T07:04:08.489Z,12.30
2019-04-25T07:06:36.029Z,12.30
2019-04-25T07:09:05.900Z,12.30
2019-04-25T07:11:34.897Z,12.30
2019-04-25T07:14:04.184Z,12.40
2019-04-25T07:16:33.500Z,12.40
2019-04-25T07:19:01.007Z,12.50
2019-04-25T07:21:28.586Z,12.60
2019-04-25T07:23:56.041Z,12.60
2019-04-25T07:26:39.594Z,12.70
2019-04-25T07:29:26.924Z,12.70
2019-04-25T07:32:06.009Z,12.80
2019-04-25T07:34:35.106Z,12.90
2019-04-25T07:37:03.449Z,13.00
2019-04-25T07:39:31.914Z,13.10
2019-04-25T07:41:59.766Z,13.30
2019-04-25T07:44:38.241Z,13.20
2019-04-25T07:46:56.191Z,13.30
2019-04-25T07:49:23.663Z,13.30
2019-04-25T07:51:50.884Z,13.30
2019-04-25T07:54:18.691Z,13.30
2019-04-25T07:56:46.649Z,13.30
2019-04-25T07:59:14.238Z,13.30
2019-04-25T08:01:43.622Z,13.30
2019-04-25T08:04:11.610Z,13.40
2019-04-25T08:06:38.804Z,13.40
2019-04-25T08:09:08.823Z,13.50
2019-04-25T08:11:36.349Z,13.60
2019-04-25T08:14:28.565Z,13.60
2019-04-25T08:16:58.363Z,13.60
2019-04-25T08:19:26.415Z,13.70
2019-04-25T08:21:54.571Z,13.80
2019-04-25T08:24:23.985Z,13.90
2019-04-25T08:26:53.321Z,14.10
2019-04-25T08:29:23.081Z,14.40
2019-04-25T08:31:53.109Z,14.50
2019-04-25T08:34:20.776Z,14.60
2019-04-25T08:36:48.963Z,14.70
2019-04-25T08:39:16.195Z,14.70
2019-04-25T08:41:45.414Z,14.70
2019-04-25T08:44:14.168Z,14.80
2019-04-25T08:46:41.674Z,14.90
2019-04-25T08:49:18.039Z,15.10
2019-04-25T08:51:45.566Z,15.30
2019-04-25T08:54:20.643Z,15.50
2019-04-25T08:56:48.498Z,15.70
2019-04-25T08:59:41.923Z,15.90
2019-04-25T09:02:10.735Z,16.20
2019-04-25T09:05:00.170Z,16.40
2019-04-25T09:07:27.673Z,16.50
2019-04-25T09:09:55.338Z,16.70
2019-04-25T09:12:24.003Z,16.80
2019-04-25T09:14:51.389Z,16.80
2019-04-25T09:17:19.021Z,16.80
2019-04-25T09:19:46.596Z,16.80
2019-04-25T09:22:14.051Z,16.70
2019-04-25T09:24:42.120Z,16.70
2019-04-25T09:27:09.719Z,16.70
2019-04-25T09:29:36.995Z,16.80
2019-04-25T09:32:04.389Z,16.90
2019-04-25T09:34:33.560Z,17.10
2019-04-25T09:37:02.775Z,17.10
2019-04-25T09:39:50.459Z,17.10
2019-04-25T09:42:18.219Z,17.10
2019-04-25T09:45:05.047Z,17.00
2019-04-25T09:47:33.539Z,17.10
2019-04-25T09:50:04.136Z,17.10
2019-04-25T09:52:34.078Z,17.10
2019-04-25T09:55:25.377Z,17.10
2019-04-25T09:58:15.206Z,17.10
2019-04-25T10:00:46.276Z,17.10
2019-04-25T10:03:13.855Z,17.20
2019-04-25T10:05:42.648Z,17.20
2019-04-25T10:08:10.025Z,17.30
2019-04-25T10:10:38.003Z,17.40
2019-04-25T10:13:06.980Z,17.60
2019-04-25T10:15:48.119Z,17.80
2019-04-25T10:18:15.822Z,18.00
2019-04-25T10:20:45.158Z,18.10
2019-04-25T10:23:13.678Z,18.30
2019-04-25T10:25:43.855Z,18.40
2019-04-25T10:28:13.264Z,18.60
2019-04-25T10:30:41.090Z,18.70
2019-04-25T10:33:09.699Z,18.70
2019-04-25T10:35:47.956Z,18.70
2019-04-25T10:38:07.514Z,18.70
2019-04-25T10:40:34.928Z,18.80
2019-04-25T10:43:04.025Z,19.00
2019-04-25T10:45:34.067Z,19.00
2019-04-25T10:48:01.555Z,19.00
2019-04-25T10:50:28.735Z,18.90
2019-04-25T10:52:55.943Z,18.80
2019-04-25T10:55:23.510Z,18.80
2019-04-25T10:57:51.124Z,18.80
2019-04-25T11:00:29.618Z,18.80
2019-04-25T11:03:01.914Z,18.90
2019-04-25T11:05:29.536Z,19.00
2019-04-25T11:07:56.851Z,19.00
2019-04-25T11:10:24.655Z,19.00
2019-04-25T11:12:53.607Z,19.00
2019-04-25T11:15:23.253Z,19.00
2019-04-25T11:17:50.709Z,19.00
2019-04-25T11:20:23.903Z,19.10
2019-04-25T11:22:51.768Z,19.20
2019-04-25T11:25:20.620Z,19.30
2019-04-25T11:27:49.620Z,19.30
2019-04-25T11:30:18.067Z,19.30
2019-04-25T11:32:45.265Z,19.30
2019-04-25T11:35:13.937Z,19.40
2019-04-25T11:37:43.114Z,19.40
2019-04-25T11:40:19.112Z,19.40
2019-04-25T11:42:47.133Z,19.40
2019-04-25T11:45:15.021Z,19.50
2019-04-25T11:47:45.910Z,19.50
2019-04-25T11:50:14.033Z,19.60
2019-04-25T11:52:41.547Z,19.70
2019-04-25T11:55:09.026Z,19.80
2019-04-25T11:57:36.323Z,19.80
2019-04-25T12:00:04.753Z,19.80
2019-04-25T12:02:32.259Z,19.80
2019-04-25T12:04:59.663Z,19.80
2019-04-25T12:07:27.030Z,19.70
2019-04-25T12:09:55.568Z,19.70
2019-04-25T12:12:23.823Z,19.70
2019-04-25T12:14:51.727Z,19.60
2019-04-25T12:17:19.446Z,19.60
2019-04-25T12:19:47.089Z,19.50
2019-04-25T12:22:14.823Z,19.50
2019-04-25T12:24:43.571Z,19.40
2019-04-25T12:27:11.495Z,19.40
2019-04-25T12:29:38.993Z,19.40
2019-04-25T12:32:06.803Z,19.30
2019-04-25T12:34:33.999Z,19.30
2019-04-25T12:37:01.329Z,19.40
2019-04-25T12:39:29.112Z,19.50
2019-04-25T12:41:57.060Z,19.50
2019-04-25T12:44:59.956Z,19.60
2019-04-25T12:47:28.655Z,19.80
2019-04-25T12:49:56.149Z,19.70
2019-04-25T12:52:24.654Z,19.80
2019-04-25T12:54:55.472Z,19.80
2019-04-25T12:57:21.574Z,20.00
2019-04-25T12:59:49.523Z,20.10
2019-04-25T13:02:16.802Z,20.30
2019-04-25T13:04:44.862Z,20.50
2019-04-25T13:07:13.328Z,20.50
2019-04-25T13:09:41.409Z,20.50
2019-04-25T13:12:10.662Z,20.50
2019-04-25T13:14:39.112Z,20.50
2019-04-25T13:17:08.448Z,20.40
2019-04-25T13:19:36.597Z,20.40
2019-04-25T13:22:04.955Z,20.40
2019-04-25T13:24:32.860Z,20.40
2019-04-25T13:27:06.155Z,20.50
2019-04-25T13:29:49.818Z,20.60
2019-04-25T13:32:51.983Z,20.70
2019-04-25T13:35:30.712Z,20.80
2019-04-25T13:37:59.294Z,20.90
2019-04-25T13:40:26.866Z,20.90
2019-04-25T13:42:54.066Z,20.90
2019-04-25T13:45:22.136Z,20.90
2019-04-25T13:47:49.235Z,20.90
2019-04-25T13:50:17.483Z,20.80
2019-04-25T13:52:45.361Z,20.80
2019-04-25T13:55:13.664Z,20.70
2019-04-25T13:57:41.039Z,20.70
2019-04-25T14:00:08.959Z,20.70
2019-04-25T14:02:36.488Z,20.90
2019-04-25T14:05:05.291Z,21.00
2019-04-25T14:07:33.291Z,21.00
2019-04-25T14:10:01.299Z,20.90
2019-04-25T14:12:29.294Z,20.90
2019-04-25T14:14:57.823Z,20.90
2019-04-25T14:17:56.478Z,20.80
2019-04-25T14:20:30.562Z,20.80
2019-04-25T14:22:57.926Z,20.70
2019-04-25T14:25:27.319Z,20.60
2019-04-25T14:27:55.774Z,20.60
2019-04-25T14:30:26.249Z,20.60
2019-04-25T14:32:53.971Z,20.50
2019-04-25T14:35:21.657Z,20.50
2019-04-25T14:37:49.871Z,20.40
2019-04-25T14:40:17.674Z,20.40
2019-04-25T14:42:44.854Z,20.40
2019-04-25T14:45:12.597Z,20.40
2019-04-25T14:47:40.145Z,20.40
2019-04-25T14:50:07.659Z,20.30
2019-04-25T14:52:35.642Z,20.30
2019-04-25T14:55:21.106Z,20.30
2019-04-25T14:57:48.394Z,20.30
2019-04-25T15:00:26.947Z,20.30
2019-04-25T15:02:54.419Z,20.30
2019-04-25T15:05:23.438Z,20.30
2019-04-25T15:07:50.759Z,20.40
2019-04-25T15:10:17.979Z,20.40
2019-04-25T15:12:45.203Z,20.40
2019-04-25T15:15:12.852Z,20.50
2019-04-25T15:17:46.380Z,20.50
2019-04-25T15:20:10.531Z,20.50
2019-04-25T15:22:38.071Z,20.50
2019-04-25T15:25:06.396Z,20.50
2019-04-25T15:27:33.786Z,20.50
2019-04-25T15:30:02.116Z,20.40
2019-04-25T15:32:32.625Z,20.40
2019-04-25T15:35:00.727Z,20.40
2019-04-25T15:37:39.200Z,20.40
2019-04-25T15:40:22.999Z,20.30
2019-04-25T15:43:10.426Z,20.30
2019-04-25T15:45:43.207Z,20.30
2019-04-25T15:48:12.299Z,20.30
2019-04-25T15:50:41.017Z,20.20
2019-04-25T15:53:08.231Z,20.20
2019-04-25T15:55:35.520Z,20.20
2019-04-25T15:58:03.459Z,20.20
2019-04-25T16:00:34.987Z,20.10
2019-04-25T16:03:03.796Z,20.10
2019-04-25T16:05:31.699Z,20.10
2019-04-25T16:07:59.249Z,20.10
2019-04-25T16:10:28.314Z,20.10
2019-04-25T16:12:55.718Z,20.10
2019-04-25T16:15:23.187Z,20.10
2019-04-25T16:17:50.363Z,20.10
2019-04-25T16:20:17.978Z,20.00
2019-04-25T16:22:45.374Z,20.00
2019-04-25T16:25:12.903Z,19.90
2019-04-25T16:27:41.101Z,20.00
2019-04-25T16:30:09.916Z,19.90
2019-04-25T16:32:37.859Z,19.90
2019-04-25T16:35:05.279Z,19.80
2019-04-25T16:37:32.776Z,19.70
2019-04-25T16:40:00.003Z,19.70
2019-04-25T16:42:27.695Z,19.60
2019-04-25T16:44:55.294Z,19.50
2019-04-25T16:47:24.423Z,19.40
2019-04-25T16:49:51.932Z,19.40
2019-04-25T16:52:19.717Z,19.30
2019-04-25T16:54:46.996Z,19.20
2019-04-25T16:57:14.231Z,19.10
2019-04-25T16:59:42.032Z,19.10
2019-04-25T17:02:10.047Z,19.00
2019-04-25T17:04:37.570Z,18.90
2019-04-25T17:07:05.507Z,18.70
2019-04-25T17:09:33.816Z,18.70
2019-04-25T17:12:02.118Z,18.60
2019-04-25T17:14:49.315Z,18.50
2019-04-25T17:17:45.379Z,18.50
2019-04-25T17:20:18.366Z,18.40
2019-04-25T17:22:45.599Z,18.30
2019-04-25T17:25:15.146Z,18.20
2019-04-25T17:27:42.799Z,18.10
2019-04-25T17:30:11.297Z,18.00
2019-04-25T17:32:57.158Z,17.90
2019-04-25T17:35:46.996Z,17.80
2019-04-25T17:38:19.490Z,17.80
2019-04-25T17:40:47.079Z,17.60
2019-04-25T17:43:15.066Z,17.50
2019-04-25T17:45:42.611Z,17.50
2019-04-25T17:48:09.815Z,17.50
2019-04-25T17:50:37.744Z,17.40
2019-04-25T17:53:05.205Z,17.40
2019-04-25T17:55:33.344Z,17.30
2019-04-25T17:58:01.418Z,17.20
2019-04-25T18:00:39.694Z,17.10
2019-04-25T18:03:10.234Z,17.10
2019-04-25T18:05:37.624Z,17.10
2019-04-25T18:08:05.539Z,17.00
2019-04-25T18:10:34.319Z,16.90
2019-04-25T18:13:01.926Z,16.80
2019-04-25T18:15:39.626Z,16.70
2019-04-25T18:18:12.253Z,16.70
2019-04-25T18:20:41.690Z,16.60
2019-04-25T18:23:31.652Z,16.60
2019-04-25T18:26:19.398Z,16.50
2019-04-25T18:28:49.667Z,16.50
2019-04-25T18:31:17.650Z,16.40
2019-04-25T18:33:46.040Z,16.30
2019-04-25T18:36:25.686Z,16.30
2019-04-25T18:39:12.815Z,16.20
2019-04-25T18:42:12.712Z,16.10
2019-04-25T18:44:40.267Z,16.00
2019-04-25T18:47:07.546Z,15.90
2019-04-25T18:49:34.855Z,15.90
2019-04-25T18:52:06.642Z,15.90
2019-04-25T18:54:43.142Z,15.80
2019-04-25T18:57:17.377Z,15.80
2019-04-25T19:00:07.235Z,15.70
2019-04-25T19:03:09.142Z,15.70
2019-04-25T19:05:43.396Z,15.60
2019-04-25T19:08:10.600Z,15.60
2019-04-25T19:10:39.434Z,15.50
2019-04-25T19:13:12.896Z,15.40
2019-04-25T19:15:36.495Z,15.40
2019-04-25T19:18:04.382Z,15.30
2019-04-25T19:20:31.916Z,15.30
2019-04-25T19:22:59.236Z,15.30
2019-04-25T19:25:26.490Z,15.20
2019-04-25T19:27:54.315Z,15.20
2019-04-25T19:30:21.862Z,15.20
2019-04-25T19:32:49.398Z,15.20
2019-04-25T19:35:17.096Z,15.10
2019-04-25T19:37:46.388Z,15.10
2019-04-25T19:40:42.313Z,15.10
2019-04-25T19:43:36.499Z,15.10
2019-04-25T19:46:04.156Z,15.00
2019-04-25T19:48:31.386Z,15.00
2019-04-25T19:50:58.894Z,14.90
2019-04-25T19:53:26.527Z,14.90
2019-04-25T19:55:54.119Z,14.90
2019-04-25T19:58:21.314Z,14.80
2019-04-25T20:00:50.837Z,14.80
2019-04-25T20:03:53.436Z,14.80
2019-04-25T20:06:26.904Z,14.80
2019-04-25T20:09:14.766Z,14.70
2019-04-25T20:11:45.420Z,14.70
2019-04-25T20:14:12.728Z,14.70
2019-04-25T20:16:44.861Z,14.60
2019-04-25T20:19:12.905Z,14.60
2019-04-25T20:21:40.835Z,14.50
2019-04-25T20:24:08.364Z,14.50
2019-04-25T20:26:35.908Z,14.50
2019-04-25T20:29:03.635Z,14.50
2019-04-25T20:31:31.142Z,14.50
2019-04-25T20:34:05.448Z,14.50
2019-04-25T20:36:28.011Z,14.40
2019-04-25T20:38:56.578Z,14.40
2019-04-25T20:41:23.778Z,14.40
2019-04-25T20:43:51.562Z,14.40
2019-04-25T20:46:18.827Z,14.40
2019-04-25T20:48:46.878Z,14.40
2019-04-25T20:51:15.954Z,14.40
2019-04-25T20:53:43.518Z,14.30
2019-04-25T20:56:12.415Z,14.30
2019-04-25T20:58:39.661Z,14.30
2019-04-25T21:01:09.088Z,14.20
2019-04-25T21:03:37.003Z,14.30
2019-04-25T21:06:13.987Z,14.20
2019-04-25T21:08:42.483Z,14.20
2019-04-25T21:11:10.079Z,14.20
2019-04-25T21:13:57.071Z,14.20
2019-04-25T21:16:52.064Z,14.10
2019-04-25T21:19:24.714Z,14.10
2019-04-25T21:21:52.217Z,14.10
2019-04-25T21:24:20.806Z,14.10
2019-04-25T21:26:48.569Z,14.10
2019-04-25T21:29:16.859Z,14.10
2019-04-25T21:31:44.385Z,14.10
2019-04-25T21:34:11.970Z,14.10
2019-04-25T21:36:39.563Z,14.10
2019-04-25T21:39:11.938Z,14.10
2019-04-25T21:41:48.805Z,14.10
2019-04-25T21:44:17.669Z,14.10
2019-04-25T21:46:45.719Z,14.10
2019-04-25T21:49:13.649Z,14.10
2019-04-25T21:51:41.104Z,14.10
2019-04-25T21:54:08.568Z,14.10
2019-04-25T21:56:37.026Z,14.10
2019-04-25T21:59:04.927Z,14.10
2019-04-25T22:01:35.794Z,14.00
2019-04-25T22:04:03.509Z,14.00
2019-04-25T22:06:32.117Z,14.00
2019-04-25T22:09:00.828Z,13.90
2019-04-25T22:11:28.778Z,13.90
2019-04-25T22:13:57.387Z,13.90
2019-04-25T22:16:25.099Z,13.80
2019-04-25T22:18:53.426Z,13.80
2019-04-25T22:21:22.009Z,13.80
2019-04-25T22:23:49.881Z,13.70
2019-04-25T22:26:17.210Z,13.70
2019-04-25T22:28:45.074Z,13.70
2019-04-25T22:31:19.033Z,13.60
2019-04-25T22:33:55.548Z,13.60
2019-04-25T22:36:23.771Z,13.60
2019-04-25T22:39:13.168Z,13.50
2019-04-25T22:41:46.612Z,13.50
2019-04-25T22:44:14.091Z,13.40
2019-04-25T22:46:42.081Z,13.40
2019-04-25T22:49:09.763Z,13.40
2019-04-25T22:51:37.606Z,13.40
2019-04-25T22:54:05.410Z,13.30
2019-04-25T22:56:34.576Z,13.30
2019-04-25T22:59:02.896Z,13.30
2019-04-25T23:01:37.790Z,13.20
2019-04-25T23:04:10.618Z,13.20
2019-04-25T23:06:39.268Z,13.20
2019-04-25T23:09:06.750Z,13.20
2019-04-25T23:11:33.983Z,13.10
2019-04-25T23:14:02.343Z,13.10
2019-04-25T23:16:30.336Z,13.10
2019-04-25T23:18:58.892Z,13.20
2019-04-25T23:21:26.081Z,13.10
2019-04-25T23:23:53.954Z,13.10
2019-04-25T23:26:43.637Z,13.10
2019-04-25T23:29:12.319Z,13.10
2019-04-25T23:31:40.239Z,13.10
2019-04-25T23:34:08.726Z,13.20
2019-04-25T23:36:36.258Z,13.20
2019-04-25T23:39:07.489Z,13.20
2019-04-25T23:41:35.837Z,13.20
2019-04-25T23:44:03.363Z,13.20
2019-04-25T23:46:31.097Z,13.10
2019-04-25T23:48:58.558Z,13.10
2019-04-25T23:51:26.327Z,13.10
2019-04-25T23:53:54.517Z,13.00
2019-04-25T23:56:21.751Z,13.00
2019-04-25T23:58:50.011Z,13.00
